Time;durP1;ratioP1;P1;durP2;ratioP2;P2;SDS_P1;SDS_P2;PMS_P1;PMS_P2;Temp;Humidity;BMP_temperature;BMP_pressure;BME280_temperature;BME280_humidity;BME280_pressure;Samples;Min_cycle;Max_cycle;Signal;HPM_P1;HPM_P2
2023/03/05 00:01:47;;;;;;;22.20;8.20;;;;;;;-1.17;86.71;99131.21;104479;1306;23037;-34
2023/03/05 00:04:13;;;;;;;14.00;7.10;;;;;;;-1.18;88.30;99129.92;104476;1295;24458;-29
2023/03/05 00:06:39;;;;;;;7.40;4.00;;;;;;;-1.18;88.17;99128.12;104444;1294;22799;-31
2023/03/05 00:09:05;;;;;;;15.00;7.20;;;;;;;-1.14;88.05;99126.08;104471;1306;24266;-34
2023/03/05 00:11:32;;;;;;;12.50;5.20;;;;;;;-1.14;87.49;99122.55;104452;1295;24430;-33
2023/03/05 00:13:58;;;;;;;14.90;5.10;;;;;;;-1.11;87.24;99122.86;104505;1295;24204;-33
2023/03/05 00:16:25;;;;;;;11.90;4.70;;;;;;;-1.12;86.23;99122.79;104545;1298;24543;-33
2023/03/05 00:18:52;;;;;;;12.50;6.00;;;;;;;-1.18;87.36;99119.71;104432;1295;22679;-33
2023/03/05 00:21:23;;;;;;;14.00;4.20;;;;;;;-1.17;87.80;99117.89;104440;1304;24327;-33
2023/03/05 00:23:49;;;;;;;5.80;2.90;;;;;;;-1.15;87.96;99114.41;104494;1294;24299;-37
2023/03/05 00:26:19;;;;;;;8.50;3.80;;;;;;;-1.12;87.67;99108.58;104519;1295;24257;-33
2023/03/05 00:28:48;;;;;;;9.40;3.90;;;;;;;-1.09;87.94;99105.27;104293;1306;24436;-30
2023/03/05 00:31:16;;;;;;;21.90;7.30;;;;;;;-1.11;87.24;99099.67;104450;1295;23056;-29
2023/03/05 00:33:42;;;;;;;21.00;3.50;;;;;;;-1.14;87.81;99096.88;104470;1294;24281;-29
2023/03/05 00:36:08;;;;;;;8.00;5.80;;;;;;;-1.15;88.11;99092.97;104559;1294;22829;-34
2023/03/05 00:38:34;;;;;;;16.70;7.50;;;;;;;-1.11;87.74;99096.48;104455;1294;23137;-35
2023/03/05 00:41:01;;;;;;;11.30;4.60;;;;;;;-1.12;87.62;99095.84;104463;1294;23266;-29
2023/03/05 00:43:27;;;;;;;34.70;11.60;;;;;;;-1.14;87.02;99098.52;104421;1306;24301;-34
2023/03/05 00:45:53;;;;;;;35.90;11.60;;;;;;;-1.23;87.23;99105.03;104418;1295;22797;-31
2023/03/05 00:48:21;;;;;;;19.40;6.70;;;;;;;-1.26;87.20;99106.70;104411;1295;24749;-34
2023/03/05 00:50:48;;;;;;;23.10;5.40;;;;;;;-1.21;86.30;99101.20;104557;1294;22679;-29
2023/03/05 00:53:14;;;;;;;13.20;5.70;;;;;;;-1.28;86.14;99097.61;104440;1295;24387;-31
2023/03/05 00:55:40;;;;;;;12.20;3.80;;;;;;;-1.29;85.89;99090.45;104456;1295;22811;-33
2023/03/05 00:58:06;;;;;;;12.20;4.20;;;;;;;-1.29;85.38;99084.13;104397;1295;22556;-32
2023/03/05 01:00:32;;;;;;;9.20;3.10;;;;;;;-1.32;86.26;99080.85;104455;1295;25471;-33
2023/03/05 01:02:58;;;;;;;8.80;3.00;;;;;;;-1.32;87.19;99079.47;104420;1295;25415;-31
2023/03/05 01:05:24;;;;;;;7.40;3.00;;;;;;;-1.33;88.93;99074.33;104319;1298;22666;-30
2023/03/05 01:07:54;;;;;;;7.20;3.00;;;;;;;-1.28;88.55;99069.25;104455;1294;24268;-33
2023/03/05 01:10:20;;;;;;;4.70;2.00;;;;;;;-1.28;87.78;99068.77;104492;1300;24292;-30
2023/03/05 01:12:46;;;;;;;8.80;2.50;;;;;;;-1.25;87.17;99068.17;104469;1306;24429;-32
2023/03/05 01:15:12;;;;;;;11.30;2.60;;;;;;;-1.24;85.11;99066.17;104406;1301;24320;-30
2023/03/05 01:17:37;;;;;;;8.50;2.40;;;;;;;-1.26;84.21;99063.50;104343;1299;22563;-33
2023/03/05 01:20:04;;;;;;;6.00;2.00;;;;;;;-1.22;83.02;99062.64;104414;1295;22988;-33
2023/03/05 01:22:30;;;;;;;4.50;1.60;;;;;;;-1.22;82.99;99057.37;104483;1304;24305;-30
2023/03/05 01:24:56;;;;;;;4.40;1.30;;;;;;;-1.23;82.62;99048.45;104467;1295;23315;-31
2023/03/05 01:27:22;;;;;;;2.80;0.90;;;;;;;-1.24;81.90;99048.19;104454;1295;24310;-35
2023/03/05 01:29:48;;;;;;;2.10;1.10;;;;;;;-1.22;82.38;99047.84;104397;1304;24269;-34
2023/03/05 01:32:14;;;;;;;3.70;1.10;;;;;;;-1.17;82.49;99040.97;104450;1295;24270;-35
2023/03/05 01:34:40;;;;;;;5.50;1.50;;;;;;;-1.13;82.44;99046.98;104505;1306;24214;-32
2023/03/05 01:37:07;;;;;;;7.90;1.40;;;;;;;-1.17;82.21;99045.02;104461;1305;23156;-35
2023/03/05 01:39:33;;;;;;;2.30;0.90;;;;;;;-1.24;82.25;99045.58;104403;1295;24740;-34
2023/03/05 01:41:59;;;;;;;2.90;0.90;;;;;;;-1.26;81.88;99039.40;104441;1304;22667;-32
2023/03/05 01:44:26;;;;;;;2.00;0.80;;;;;;;-1.26;81.62;99038.40;104252;1306;23158;-31
2023/03/05 01:46:52;;;;;;;3.90;1.00;;;;;;;-1.23;81.20;99032.35;104499;1294;24318;-31
2023/03/05 01:49:22;;;;;;;3.90;0.90;;;;;;;-1.19;79.79;99030.04;104478;1294;22670;-34
2023/03/05 01:51:55;;;;;;;3.10;0.80;;;;;;;-1.23;79.69;99031.06;104468;1304;23114;-34
2023/03/05 01:54:21;;;;;;;2.20;0.80;;;;;;;-1.25;80.56;99033.70;104446;1306;22613;-30
2023/03/05 01:56:48;;;;;;;3.90;0.80;;;;;;;-1.21;80.45;99028.77;104423;1299;24307;-31
2023/03/05 01:59:14;;;;;;;2.50;1.00;;;;;;;-1.33;81.05;99027.05;104444;1294;24214;-34
2023/03/05 02:01:42;;;;;;;3.80;1.60;;;;;;;-1.39;82.62;99023.54;104456;1295;24308;-35
2023/03/05 02:04:10;;;;;;;2.70;0.90;;;;;;;-1.43;82.94;99017.70;104488;1295;24435;-30
2023/03/05 02:06:36;;;;;;;5.00;1.50;;;;;;;-1.46;84.28;99013.21;104497;1306;22856;-31
2023/03/05 02:09:03;;;;;;;4.10;1.10;;;;;;;-1.47;84.94;99012.91;104446;1294;24243;-33
2023/03/05 02:11:28;;;;;;;3.80;1.70;;;;;;;-1.48;86.16;99013.20;104483;1304;22662;-34
2023/03/05 02:13:55;;;;;;;4.30;1.00;;;;;;;-1.43;85.67;99014.91;104442;1295;22808;-30
2023/03/05 02:16:20;;;;;;;2.80;1.10;;;;;;;-1.42;84.72;99017.05;104392;1295;22661;-30
2023/03/05 02:18:46;;;;;;;3.60;0.80;;;;;;;-1.40;84.20;99011.76;104466;1300;24327;-31
2023/03/05 02:21:12;;;;;;;5.70;2.30;;;;;;;-1.43;84.11;99010.15;104391;1295;24453;-33
2023/03/05 02:23:40;;;;;;;5.00;0.80;;;;;;;-1.49;84.25;99009.80;104433;1295;23044;-35
2023/03/05 02:26:07;;;;;;;2.70;1.40;;;;;;;-1.47;84.46;99003.44;104441;1306;23299;-33
2023/03/05 02:28:38;;;;;;;3.80;0.90;;;;;;;-1.41;82.30;99001.50;104507;1302;22641;-29
2023/03/05 02:31:09;;;;;;;3.60;1.20;;;;;;;-1.36;80.48;99000.98;104443;1304;24311;-29
2023/03/05 02:33:35;;;;;;;2.70;1.00;;;;;;;-1.35;79.58;98993.34;104434;1306;24312;-33
2023/03/05 02:36:01;;;;;;;4.20;1.10;;;;;;;-1.33;79.87;98987.88;104521;1306;24278;-33
2023/03/05 02:38:27;;;;;;;3.10;0.60;;;;;;;-1.44;79.64;98990.55;104454;1305;24404;-29
2023/03/05 02:40:53;;;;;;;1.90;0.80;;;;;;;-1.25;77.81;98988.93;104400;1298;24795;-37
2023/03/05 02:43:18;;;;;;;7.20;1.90;;;;;;;-1.25;76.07;98986.80;104486;1304;22822;-30
2023/03/05 02:45:44;;;;;;;2.10;0.70;;;;;;;-1.38;76.44;98984.63;104403;1304;22671;-34
2023/03/05 02:48:10;;;;;;;2.60;0.80;;;;;;;-1.52;78.75;98982.98;104218;1307;22642;-33
2023/03/05 02:50:38;;;;;;;1.40;0.80;;;;;;;-1.39;78.19;98981.70;104463;1294;22803;-30
2023/03/05 02:53:05;;;;;;;1.60;0.60;;;;;;;-1.29;76.23;98985.11;104467;1295;24198;-34
2023/03/05 02:55:31;;;;;;;2.50;0.60;;;;;;;-1.39;76.68;98987.70;104527;1294;24103;-36
2023/03/05 02:57:57;;;;;;;2.20;0.90;;;;;;;-1.49;77.97;98989.95;104388;1295;24271;-34
2023/03/05 03:00:23;;;;;;;10.60;1.30;;;;;;;-1.51;78.76;98987.30;104503;1295;23161;-35
2023/03/05 03:02:49;;;;;;;6.40;1.40;;;;;;;-1.43;78.17;98985.04;104422;1295;22657;-34
2023/03/05 03:05:15;;;;;;;2.70;1.50;;;;;;;-1.48;78.32;98983.49;104411;1295;24298;-29
2023/03/05 03:07:41;;;;;;;5.30;1.70;;;;;;;-1.32;76.59;98981.63;104420;1304;23083;-30
2023/03/05 03:10:07;;;;;;;5.20;1.80;;;;;;;-1.39;76.77;98980.10;104260;1306;22575;-34
2023/03/05 03:12:38;;;;;;;10.00;1.90;;;;;;;-1.44;78.30;98979.30;104422;1295;24311;-29
2023/03/05 03:15:05;;;;;;;1.70;0.60;;;;;;;-1.44;78.89;98979.86;104463;1295;22827;-30
2023/03/05 03:17:33;;;;;;;4.80;1.40;;;;;;;-1.41;78.76;98975.91;104430;1301;22556;-30
2023/03/05 03:19:59;;;;;;;2.00;0.70;;;;;;;-1.37;79.29;98970.85;104422;1295;25435;-34
2023/03/05 03:22:25;;;;;;;1.90;0.80;;;;;;;-1.36;78.32;98973.23;104482;1305;23032;-34
2023/03/05 03:24:52;;;;;;;2.10;1.00;;;;;;;-1.35;78.86;98967.84;104351;1305;24279;-35
2023/03/05 03:27:18;;;;;;;6.50;1.30;;;;;;;-1.31;78.16;98970.84;104431;1305;23133;-34
2023/03/05 03:29:44;;;;;;;2.30;1.30;;;;;;;-1.33;77.50;98969.27;104462;1295;23171;-34
2023/03/05 03:32:10;;;;;;;2.90;1.10;;;;;;;-1.33;76.54;98971.77;104421;1301;22641;-32
2023/03/05 03:34:36;;;;;;;4.30;0.90;;;;;;;-1.36;76.07;98970.94;104425;1295;23176;-35
2023/03/05 03:37:02;;;;;;;2.90;0.70;;;;;;;-1.35;76.43;98968.36;104422;1304;24347;-31
2023/03/05 03:39:28;;;;;;;2.10;0.60;;;;;;;-1.32;75.98;98968.85;104430;1294;24436;-33
2023/03/05 03:41:55;;;;;;;2.10;0.90;;;;;;;-1.24;75.29;98960.38;104450;1304;24473;-32
2023/03/05 03:44:21;;;;;;;4.00;0.70;;;;;;;-1.16;73.50;98960.40;104499;1295;22624;-34
2023/03/05 03:46:48;;;;;;;1.60;0.70;;;;;;;-1.30;74.76;98958.46;104467;1306;22778;-29
2023/03/05 03:49:16;;;;;;;0.20;0.20;;;;;;;-1.28;74.79;98951.45;104439;1306;22985;-32
2023/03/05 03:51:42;;;;;;;4.50;2.10;;;;;;;-1.20;73.65;98945.64;104530;1292;25308;-34
2023/03/05 03:54:09;;;;;;;6.20;1.00;;;;;;;-1.22;74.05;98945.60;104444;1299;24398;-34
2023/03/05 03:56:35;;;;;;;1.40;0.70;;;;;;;-1.22;74.59;98942.48;104424;1306;22556;-30
2023/03/05 03:59:01;;;;;;;2.30;0.50;;;;;;;-1.14;74.37;98938.12;104448;1301;23036;-30
2023/03/05 04:01:27;;;;;;;1.90;0.70;;;;;;;-1.09;74.01;98938.19;104336;1304;24215;-33
2023/03/05 04:03:53;;;;;;;1.70;0.50;;;;;;;-1.13;74.82;98934.70;104417;1305;23154;-30
2023/03/05 04:06:19;;;;;;;2.30;0.60;;;;;;;-1.26;75.76;98930.86;104390;1306;23183;-34
2023/03/05 04:08:45;;;;;;;4.40;0.70;;;;;;;-1.39;77.06;98928.09;104419;1305;23162;-35
2023/03/05 04:11:11;;;;;;;4.30;0.70;;;;;;;-1.48;78.12;98922.05;104455;1304;22786;-30
2023/03/05 04:13:37;;;;;;;3.20;0.90;;;;;;;-1.49;78.91;98922.36;104439;1304;22994;-32
2023/03/05 04:16:03;;;;;;;3.40;1.00;;;;;;;-1.43;79.37;98916.32;104435;1304;24272;-33
2023/03/05 04:18:29;;;;;;;3.60;0.90;;;;;;;-1.48;80.57;98911.21;104491;1295;22817;-33
2023/03/05 04:20:55;;;;;;;1.60;0.40;;;;;;;-1.50;81.48;98907.10;104441;1294;22550;-29
2023/03/05 04:23:21;;;;;;;3.00;0.70;;;;;;;-1.57;82.97;98909.88;104454;1306;22818;-29
2023/03/05 04:25:47;;;;;;;3.00;1.00;;;;;;;-1.59;84.00;98907.27;104399;1306;24917;-30
2023/03/05 04:28:13;;;;;;;3.60;0.80;;;;;;;-1.58;84.86;98905.55;104449;1304;23384;-28
2023/03/05 04:30:39;;;;;;;7.70;1.20;;;;;;;-1.59;85.90;98905.29;104463;1294;23044;-28
2023/03/05 04:33:05;;;;;;;2.70;0.80;;;;;;;-1.59;86.37;98902.96;104424;1296;24345;-32
2023/03/05 04:35:31;;;;;;;5.40;1.10;;;;;;;-1.61;87.49;98895.25;104492;1306;22670;-30
2023/03/05 05:15:18;;;;;;;6.80;1.80;;;;;;;-1.80;99.37;98875.71;104346;1298;557415;-30
2023/03/05 05:17:46;;;;;;;5.60;1.60;;;;;;;-1.83;99.75;98873.61;104152;1294;535729;-34
2023/03/05 05:20:13;;;;;;;6.30;1.90;;;;;;;-1.89;99.99;98873.08;104569;1305;22543;-30
2023/03/05 05:22:38;;;;;;;4.40;1.80;;;;;;;-1.86;100.00;98870.88;104630;1293;22630;-35
2023/03/05 05:25:04;;;;;;;3.70;1.50;;;;;;;-1.94;100.00;98871.23;104548;1295;23170;-30
2023/03/05 05:27:31;;;;;;;4.30;1.20;;;;;;;-1.98;100.00;98871.88;104473;1294;24307;-33
2023/03/05 05:29:57;;;;;;;5.00;1.60;;;;;;;-1.94;100.00;98870.34;104546;1305;22818;-30
2023/03/05 05:32:23;;;;;;;4.60;1.20;;;;;;;-1.92;100.00;98870.55;104488;1294;22658;-29
2023/03/05 05:34:56;;;;;;;4.10;1.10;;;;;;;-1.90;100.00;98867.20;104552;1305;24478;-34
2023/03/05 05:37:22;;;;;;;7.00;2.40;;;;;;;-1.86;100.00;98869.66;104333;1290;24262;-30
2023/03/05 05:39:49;;;;;;;4.80;1.80;;;;;;;-1.88;100.00;98863.84;104126;1305;23116;-30
2023/03/05 05:42:16;;;;;;;4.90;1.70;;;;;;;-1.97;100.00;98861.83;104542;1293;22549;-30
2023/03/05 05:44:42;;;;;;;3.80;1.40;;;;;;;-1.99;100.00;98860.11;104561;1293;24253;-30
2023/03/05 05:47:08;;;;;;;20.90;1.30;;;;;;;-1.95;100.00;98860.30;104520;1304;24220;-32
2023/03/05 05:49:34;;;;;;;1.40;0.90;;;;;;;-1.85;100.00;98859.84;104515;1298;22656;-30
2023/03/05 05:52:00;;;;;;;5.80;1.40;;;;;;;-1.78;100.00;98854.83;104488;1294;22799;-33
2023/03/05 05:54:26;;;;;;;3.60;1.50;;;;;;;-1.75;100.00;98851.24;104519;1294;22648;-29
2023/03/05 05:56:52;;;;;;;5.10;2.20;;;;;;;-1.86;100.00;98848.27;104422;1295;23054;-33
2023/03/05 05:59:19;;;;;;;10.00;1.80;;;;;;;-1.83;100.00;98844.38;104476;1291;22693;-33
2023/03/05 06:01:45;;;;;;;6.30;2.10;;;;;;;-1.90;100.00;98846.65;104458;1303;25243;-29
2023/03/05 06:04:11;;;;;;;12.10;2.20;;;;;;;-1.93;100.00;98849.23;104572;1294;22674;-28
2023/03/05 06:06:37;;;;;;;5.60;1.20;;;;;;;-1.82;100.00;98849.20;104445;1294;22816;-28
2023/03/05 06:09:03;;;;;;;4.10;1.60;;;;;;;-1.67;100.00;98840.85;104512;1302;22554;-30
2023/03/05 06:11:29;;;;;;;3.40;2.10;;;;;;;-1.71;100.00;98848.23;104586;1294;22551;-32
2023/03/05 06:13:55;;;;;;;4.60;1.30;;;;;;;-1.79;100.00;98846.61;104475;1294;23252;-33
2023/03/05 06:16:22;;;;;;;4.00;1.70;;;;;;;-1.71;100.00;98841.01;104470;1304;23010;-30
2023/03/05 06:18:49;;;;;;;4.00;1.60;;;;;;;-1.69;100.00;98843.66;104538;1295;22683;-34
2023/03/05 06:21:16;;;;;;;3.40;0.90;;;;;;;-1.69;100.00;98843.45;104578;1294;24296;-33
2023/03/05 06:23:42;;;;;;;6.00;1.70;;;;;;;-1.67;100.00;98839.48;104541;1305;22596;-33
2023/03/05 06:26:10;;;;;;;6.20;1.80;;;;;;;-1.67;100.00;98836.45;104322;1305;22804;-30
2023/03/05 06:28:36;;;;;;;3.10;1.20;;;;;;;-1.52;100.00;98833.36;104345;1303;23470;-29
2023/03/05 06:31:04;;;;;;;2.00;1.00;;;;;;;-1.61;100.00;98834.40;104490;1304;22553;-29
2023/03/05 06:33:30;;;;;;;4.20;1.50;;;;;;;-1.64;100.00;98830.08;104548;1294;23203;-33
2023/03/05 06:35:56;;;;;;;3.80;1.80;;;;;;;-1.54;100.00;98828.64;104575;1294;22678;-29
2023/03/05 06:38:22;;;;;;;31.60;1.50;;;;;;;-1.62;100.00;98825.18;104500;1288;22666;-31
2023/03/05 06:40:48;;;;;;;3.20;1.30;;;;;;;-1.60;100.00;98829.90;104288;1305;22805;-31
2023/03/05 06:43:14;;;;;;;4.00;1.20;;;;;;;-1.56;100.00;98826.20;104509;1294;23046;-30
2023/03/05 06:45:41;;;;;;;2.70;1.10;;;;;;;-1.36;100.00;98821.68;104520;1305;24291;-28
2023/03/05 06:48:07;;;;;;;7.00;1.90;;;;;;;-1.24;100.00;98821.67;104502;1294;24810;-29
2023/03/05 06:50:36;;;;;;;5.20;1.60;;;;;;;-1.23;100.00;98823.65;104543;1302;22687;-38
2023/03/05 06:53:02;;;;;;;8.50;2.20;;;;;;;-1.13;100.00;98820.11;104500;1294;22657;-30
2023/03/05 06:55:28;;;;;;;7.60;2.30;;;;;;;-1.14;100.00;98818.31;104517;1305;22667;-29
2023/03/05 06:57:54;;;;;;;11.30;1.70;;;;;;;-1.20;100.00;98820.20;104349;1300;22673;-33
2023/03/05 07:00:21;;;;;;;2.70;1.50;;;;;;;-1.21;100.00;98818.73;104465;1295;22671;-33
2023/03/05 07:02:48;;;;;;;1.80;1.10;;;;;;;-1.03;100.00;98817.95;104546;1305;22660;-33
2023/03/05 07:05:14;;;;;;;8.10;1.30;;;;;;;-1.11;100.00;98818.23;104535;1302;22690;-29
2023/03/05 07:07:40;;;;;;;2.40;1.20;;;;;;;-1.07;100.00;98815.55;104479;1305;22796;-33
2023/03/05 07:10:07;;;;;;;10.60;1.80;;;;;;;-1.16;100.00;98814.45;104503;1294;22666;-29
2023/03/05 07:12:34;;;;;;;5.70;1.70;;;;;;;-1.21;100.00;98811.92;104544;1304;23093;-33
2023/03/05 07:15:00;;;;;;;4.70;2.10;;;;;;;-1.26;100.00;98807.06;104456;1296;24231;-29
2023/03/05 07:17:26;;;;;;;10.00;2.10;;;;;;;-1.29;100.00;98800.67;104465;1298;24901;-31
2023/03/05 07:19:53;;;;;;;4.90;1.40;;;;;;;-1.30;100.00;98796.02;104522;1305;24385;-35
2023/03/05 07:22:19;;;;;;;4.70;1.40;;;;;;;-1.29;100.00;98793.11;104536;1303;22779;-30
2023/03/05 07:24:45;;;;;;;3.40;2.20;;;;;;;-1.20;100.00;98791.77;104538;1285;22966;-34
2023/03/05 07:27:11;;;;;;;4.60;1.60;;;;;;;-1.17;100.00;98789.55;104295;1305;22815;-33
2023/03/05 07:29:39;;;;;;;6.20;1.20;;;;;;;-1.08;100.00;98786.15;104335;1303;22641;-34
2023/03/05 07:32:05;;;;;;;6.30;1.90;;;;;;;-0.97;100.00;98781.61;104310;1295;24293;-30
2023/03/05 07:34:31;;;;;;;5.50;1.40;;;;;;;-1.05;100.00;98781.31;104525;1288;22551;-32
2023/03/05 07:36:57;;;;;;;8.00;2.20;;;;;;;-0.98;100.00;98780.15;104334;1301;23157;-33
2023/03/05 07:39:23;;;;;;;3.60;1.80;;;;;;;-0.94;100.00;98778.88;104494;1298;22941;-34
2023/03/05 07:41:50;;;;;;;4.00;1.80;;;;;;;-0.81;100.00;98781.09;104424;1305;22835;-34
2023/03/05 07:44:16;;;;;;;7.40;3.20;;;;;;;-0.86;100.00;98775.70;104465;1294;24346;-30
2023/03/05 07:46:42;;;;;;;11.50;1.40;;;;;;;-0.89;100.00;98777.74;104500;1301;22666;-33
2023/03/05 07:49:08;;;;;;;3.00;1.00;;;;;;;-0.97;100.00;98776.53;104305;1303;22669;-34
2023/03/05 07:51:35;;;;;;;3.10;1.80;;;;;;;-1.03;100.00;98774.46;104589;1304;25311;-35
2023/03/05 07:54:00;;;;;;;7.30;2.90;;;;;;;-1.16;100.00;98773.35;104472;1295;23028;-30
2023/03/05 07:56:30;;;;;;;4.60;1.90;;;;;;;-1.13;100.00;98767.23;104434;1305;24270;-34
2023/03/05 07:58:57;;;;;;;6.10;1.80;;;;;;;-1.07;100.00;98764.29;104533;1294;25480;-35
2023/03/05 08:01:23;;;;;;;5.90;2.40;;;;;;;-1.20;100.00;98767.75;104514;1305;22673;-28
2023/03/05 08:03:49;;;;;;;10.90;1.90;;;;;;;-1.14;100.00;98767.34;104456;1294;23175;-33
2023/03/05 08:06:15;;;;;;;3.60;2.10;;;;;;;-1.10;100.00;98767.19;104449;1305;23161;-31
2023/03/05 08:08:41;;;;;;;8.20;2.10;;;;;;;-1.14;100.00;98765.55;104321;1304;22668;-35
2023/03/05 08:11:09;;;;;;;1.80;1.30;;;;;;;-1.07;100.00;98762.81;104431;1304;22817;-35
2023/03/05 08:13:36;;;;;;;2.60;1.30;;;;;;;-1.05;100.00;98764.55;104572;1305;24392;-29
2023/03/05 08:16:06;;;;;;;5.90;2.50;;;;;;;-1.13;100.00;98765.14;104533;1305;22618;-29
2023/03/05 08:18:32;;;;;;;5.50;3.50;;;;;;;-1.10;100.00;98761.91;104520;1305;22669;-34
2023/03/05 08:20:59;;;;;;;6.60;3.50;;;;;;;-1.04;100.00;98767.89;104434;1305;23043;-29
2023/03/05 08:23:25;;;;;;;21.80;3.50;;;;;;;-1.03;100.00;98767.79;104542;1305;22672;-34
2023/03/05 08:25:50;;;;;;;3.90;2.80;;;;;;;-1.04;100.00;98765.54;104318;1304;23240;-34
2023/03/05 08:28:18;;;;;;;7.10;4.10;;;;;;;-0.87;100.00;98768.04;104490;1294;22670;-38
2023/03/05 08:30:46;;;;;;;16.40;5.90;;;;;;;-0.84;100.00;98763.45;104410;1295;24604;-34
2023/03/05 08:33:13;;;;;;;16.10;5.80;;;;;;;-0.81;100.00;98770.72;104448;1305;22677;-29
2023/03/05 08:35:39;;;;;;;11.10;6.70;;;;;;;-0.48;100.00;98760.85;104476;1303;24248;-34
2023/03/05 08:38:05;;;;;;;5.60;3.80;;;;;;;-0.46;100.00;98764.33;104477;1303;23160;-34
2023/03/05 08:40:30;;;;;;;16.10;7.20;;;;;;;-0.41;100.00;98761.36;104536;1295;22859;-34
2023/03/05 08:42:58;;;;;;;14.30;6.10;;;;;;;0.27;100.00;98759.69;104466;1305;25484;-34
2023/03/05 08:45:26;;;;;;;32.60;15.30;;;;;;;0.15;100.00;98756.07;104193;1305;22565;-30
2023/03/05 08:47:54;;;;;;;17.90;7.50;;;;;;;0.01;100.00;98749.20;104542;1295;22552;-29
2023/03/05 08:50:21;;;;;;;11.50;4.00;;;;;;;-0.02;100.00;98754.67;104458;1305;22553;-30
2023/03/05 08:52:48;;;;;;;31.40;11.00;;;;;;;0.09;100.00;98750.70;104331;1305;22670;-30
2023/03/05 08:55:14;;;;;;;14.50;4.90;;;;;;;0.29;100.00;98743.30;104332;1295;25256;-35
2023/03/05 08:57:41;;;;;;;22.40;5.10;;;;;;;0.35;100.00;98739.00;104411;1305;22742;-35
2023/03/05 09:00:09;;;;;;;22.80;7.10;;;;;;;0.59;100.00;98738.30;104328;1305;24272;-29
2023/03/05 09:02:35;;;;;;;17.60;5.90;;;;;;;0.38;100.00;98742.26;104506;1305;22663;-30
2023/03/05 09:05:02;;;;;;;14.10;7.20;;;;;;;0.37;100.00;98742.73;104436;1304;22796;-35
2023/03/05 09:07:28;;;;;;;6.40;2.90;;;;;;;0.38;100.00;98740.57;104498;1305;23034;-34
2023/03/05 09:09:54;;;;;;;12.40;5.10;;;;;;;0.59;100.00;98740.04;104486;1295;22659;-34
2023/03/05 09:12:19;;;;;;;13.00;9.20;;;;;;;0.57;100.00;98743.98;104496;1295;22822;-34
2023/03/05 09:14:45;;;;;;;4.30;2.30;;;;;;;0.60;100.00;98737.87;104494;1295;23176;-37
2023/03/05 09:17:12;;;;;;;18.00;7.80;;;;;;;0.58;100.00;98742.83;104555;1300;22777;-33
2023/03/05 09:19:38;;;;;;;22.30;6.30;;;;;;;0.74;100.00;98735.23;104508;1304;24827;-34
2023/03/05 09:22:03;;;;;;;9.00;3.10;;;;;;;1.07;100.00;98734.69;104483;1293;25427;-29
2023/03/05 09:24:29;;;;;;;27.60;3.80;;;;;;;0.99;100.00;98739.03;104312;1305;22755;-28
2023/03/05 09:26:59;;;;;;;9.80;5.30;;;;;;;0.95;100.00;98738.88;104473;1301;22666;-33
2023/03/05 09:29:25;;;;;;;10.30;2.90;;;;;;;0.82;99.94;98737.13;104303;1297;22678;-37
2023/03/05 09:31:51;;;;;;;35.60;5.50;;;;;;;0.88;98.71;98736.05;104334;1303;22654;-30
2023/03/05 09:34:17;;;;;;;14.70;3.90;;;;;;;0.79;99.19;98741.30;104519;1299;23048;-29
2023/03/05 09:36:43;;;;;;;14.30;5.00;;;;;;;0.68;98.79;98745.39;104507;1305;22825;-30
2023/03/05 09:39:09;;;;;;;10.70;4.40;;;;;;;0.84;96.93;98735.93;104452;1302;22683;-30
2023/03/05 09:41:56;;;;;;;8.90;3.50;;;;;;;0.61;97.09;98747.64;104507;1299;22664;-34
2023/03/05 09:44:37;;;;;;;11.70;3.80;;;;;;;0.61;96.59;98746.52;104498;1295;24327;-38
2023/03/05 09:47:15;;;;;;;5.20;1.30;;;;;;;0.68;94.95;98735.34;104371;1305;22678;-30
2023/03/05 09:50:05;;;;;;;8.90;2.50;;;;;;;0.41;96.39;98744.27;104470;1302;22660;-33
2023/03/05 09:52:46;;;;;;;3.00;1.70;;;;;;;0.34;97.55;98743.69;104454;1304;22679;-34
2023/03/05 10:01:26;;;;;;;10.00;4.20;;;;;;;0.77;100.00;98734.21;103938;1302;542873;-28
2023/03/05 10:04:11;;;;;;;4.60;1.80;;;;;;;1.13;98.57;98726.46;104101;1298;22608;-29
2023/03/05 10:06:47;;;;;;;3.80;2.90;;;;;;;1.11;96.40;98724.06;104080;1302;22693;-34
2023/03/05 10:09:20;;;;;;;3.90;1.10;;;;;;;1.33;92.12;98717.94;103922;1304;22893;-29
2023/03/05 10:12:00;;;;;;;3.30;1.30;;;;;;;1.31;89.98;98712.69;104027;1301;24238;-29
2023/03/05 10:14:28;;;;;;;4.70;1.20;;;;;;;1.57;86.73;98717.48;103695;1310;487397;-30
2023/03/05 10:17:01;;;;;;;14.90;1.10;;;;;;;1.42;85.46;98713.72;104292;1308;23174;-30
2023/03/05 10:19:52;;;;;;;2.30;1.10;;;;;;;1.46;84.52;98713.58;104150;1310;25354;-36
2023/03/05 10:22:23;;;;;;;4.10;1.40;;;;;;;1.65;81.83;98705.92;104204;1298;22665;-34
2023/03/05 10:25:06;;;;;;;3.80;2.00;;;;;;;1.46;83.41;98712.09;104173;1301;22659;-34
2023/03/05 10:27:51;;;;;;;8.10;1.70;;;;;;;1.24;83.25;98706.88;104170;1298;24325;-29
2023/03/05 10:30:41;;;;;;;15.30;5.00;;;;;;;1.39;84.89;98707.98;104179;1306;23181;-34
2023/03/05 10:33:26;;;;;;;37.70;9.30;;;;;;;1.50;83.76;98715.20;104208;1308;22673;-30
2023/03/05 10:36:15;;;;;;;4.90;2.90;;;;;;;1.63;83.52;98709.75;104199;1298;24292;-34
2023/03/05 10:38:50;;;;;;;7.70;1.40;;;;;;;1.84;81.18;98712.07;104175;1301;22672;-29
2023/03/05 10:41:35;;;;;;;8.10;2.60;;;;;;;1.81;80.96;98704.95;104135;1309;22792;-34
2023/03/05 10:44:17;;;;;;;2.70;1.50;;;;;;;1.79;80.45;98696.99;104264;1309;24236;-30
2023/03/05 10:46:43;;;;;;;9.00;3.30;;;;;;;1.53;82.77;98700.43;104261;1309;24094;-34
2023/03/05 10:49:18;;;;;;;6.80;1.70;;;;;;;1.69;82.00;98698.93;104028;1309;22550;-36
2023/03/05 10:51:50;;;;;;;9.10;3.50;;;;;;;1.56;82.07;98696.02;104426;1298;23902;-31
2023/03/05 10:54:27;;;;;;;3.30;2.50;;;;;;;1.41;84.19;98700.88;104478;1309;22663;-34
2023/03/05 10:57:15;;;;;;;3.20;2.30;;;;;;;1.56;82.31;98692.11;104230;1292;22575;-35
2023/03/05 10:59:45;;;;;;;9.30;2.40;;;;;;;1.45;81.87;98696.99;104417;1309;22556;-35
2023/03/05 11:02:11;;;;;;;6.50;3.00;;;;;;;1.55;83.13;98697.55;104191;1308;22828;-35
2023/03/05 11:44:55;;;;;;;4.40;2.20;;;;;;;0.54;98.31;98668.35;104176;1297;557734;-33
2023/03/05 11:47:41;;;;;;;3.10;2.00;;;;;;;0.92;93.66;98666.14;103951;1305;507513;-30
2023/03/05 11:50:27;;;;;;;3.50;1.60;;;;;;;0.68;93.33;98655.73;104433;1302;22573;-30
2023/03/05 11:53:06;;;;;;;3.20;1.70;;;;;;;0.60;93.83;98648.17;104459;1294;22647;-34
2023/03/05 11:55:39;;;;;;;7.20;1.90;;;;;;;0.77;93.98;98643.15;104507;1294;24105;-31
2023/03/05 11:58:21;;;;;;;2.20;1.90;;;;;;;0.89;92.82;98645.69;104557;1294;22512;-35
2023/03/05 12:00:47;;;;;;;4.40;1.20;;;;;;;0.74;90.47;98635.86;104479;1294;23201;-30
2023/03/05 12:03:15;;;;;;;2.20;1.40;;;;;;;0.74;89.64;98640.19;104533;1305;22713;-38
2023/03/05 12:05:50;;;;;;;4.70;2.30;;;;;;;0.87;90.93;98639.34;104548;1294;22846;-35
2023/03/05 12:08:32;;;;;;;5.50;1.30;;;;;;;0.84;90.51;98637.23;104066;1305;22680;-34
2023/03/05 12:10:59;;;;;;;2.00;1.40;;;;;;;0.75;88.91;98631.86;104178;1305;23156;-31
2023/03/05 12:13:32;;;;;;;1.30;0.90;;;;;;;0.78;89.86;98631.94;104471;1294;23054;-31
2023/03/05 12:16:10;;;;;;;3.00;0.80;;;;;;;0.78;88.96;98628.79;104502;1294;23211;-35
2023/03/05 12:18:45;;;;;;;8.50;1.80;;;;;;;1.08;85.79;98624.41;104363;1300;22549;-32
2023/03/05 12:21:32;;;;;;;2.80;2.00;;;;;;;0.89;85.32;98625.10;104441;1291;22693;-28
2023/03/05 12:24:00;;;;;;;15.80;4.20;;;;;;;1.03;86.96;98623.13;104425;1304;23046;-33
2023/03/05 12:26:49;;;;;;;8.20;2.40;;;;;;;1.30;84.57;98618.56;104499;1305;25439;-30
2023/03/05 12:29:39;;;;;;;18.30;5.30;;;;;;;1.27;82.94;98621.52;104517;1294;24233;-33
2023/03/05 12:32:45;;;;;;;14.90;6.50;;;;;;;1.28;83.01;98619.67;104510;1294;22801;-36
2023/03/05 12:35:21;;;;;;;63.10;21.20;;;;;;;1.39;83.76;98622.79;104472;1305;24337;-30
2023/03/05 12:37:58;;;;;;;32.00;13.00;;;;;;;1.69;82.48;98618.42;104548;1290;24242;-35
2023/03/05 12:40:26;;;;;;;34.80;14.20;;;;;;;1.67;82.87;98613.52;104367;1305;23046;-30
2023/03/05 12:42:57;;;;;;;38.50;9.00;;;;;;;1.76;82.50;98617.20;104339;1297;22565;-34
2023/03/05 12:45:24;;;;;;;21.10;6.90;;;;;;;1.45;84.63;98614.38;104449;1297;22638;-34
2023/03/05 12:48:32;;;;;;;11.20;4.50;;;;;;;1.48;85.50;98615.70;104438;1294;22818;-31
2023/03/05 12:50:58;;;;;;;3.00;2.00;;;;;;;1.48;83.59;98617.80;104440;1295;23175;-30
2023/03/05 12:53:24;;;;;;;5.20;2.30;;;;;;;1.39;86.54;98613.45;104517;1291;22682;-30